createdAt,value
2023-04-13T00:00:24.225Z,8.20
2023-04-13T00:05:28.369Z,8.20
2023-04-13T00:10:36.488Z,8.20
2023-04-13T00:15:43.240Z,8.30
2023-04-13T00:20:46.828Z,8.40
2023-04-13T00:25:50.094Z,8.50
2023-04-13T00:30:53.173Z,8.60
2023-04-13T00:35:56.419Z,8.60
2023-04-13T00:40:59.511Z,8.70
2023-04-13T00:46:02.539Z,8.70
2023-04-13T00:51:06.096Z,8.80
2023-04-13T00:56:10.183Z,8.80
2023-04-13T01:01:13.002Z,8.80
2023-04-13T01:06:44.192Z,8.80
2023-04-13T01:12:02.721Z,8.90
2023-04-13T01:17:17.699Z,8.90
2023-04-13T01:22:25.742Z,8.90
2023-04-13T01:27:55.731Z,8.90
2023-04-13T01:33:02.389Z,8.90
2023-04-13T01:38:07.054Z,8.90
2023-04-13T01:43:10.352Z,8.80
2023-04-13T01:48:31.849Z,8.80
2023-04-13T01:53:47.647Z,8.80
2023-04-13T01:58:58.182Z,8.90
2023-04-13T02:04:02.835Z,8.90
2023-04-13T02:09:09.230Z,8.90
2023-04-13T02:14:12.327Z,8.90
2023-04-13T02:19:15.293Z,9.00
2023-04-13T02:24:18.266Z,9.00
2023-04-13T02:29:21.733Z,8.90
2023-04-13T02:34:24.796Z,9.00
2023-04-13T02:39:27.846Z,9.00
2023-04-13T02:44:31.156Z,9.00
2023-04-13T02:49:34.366Z,8.90
2023-04-13T02:54:37.472Z,9.00
2023-04-13T02:59:40.848Z,9.00
2023-04-13T03:04:44.458Z,8.90
2023-04-13T03:09:48.312Z,8.90
2023-04-13T03:14:51.654Z,8.90
2023-04-13T03:19:54.602Z,8.90
2023-04-13T03:24:57.492Z,8.90
2023-04-13T03:30:00.571Z,9.00
2023-04-13T03:35:03.998Z,9.00
2023-04-13T03:40:10.925Z,9.00
2023-04-13T03:45:13.996Z,9.00
2023-04-13T03:50:17.186Z,9.00
2023-04-13T03:55:20.390Z,9.00
2023-04-13T04:00:23.576Z,9.00
2023-04-13T04:05:26.542Z,9.00
2023-04-13T04:10:29.400Z,9.00
2023-04-13T04:15:32.359Z,9.00
2023-04-13T04:20:35.387Z,9.10
2023-04-13T04:25:39.983Z,9.10
2023-04-13T04:30:45.934Z,9.10
2023-04-13T04:35:52.191Z,9.20
2023-04-13T04:40:57.819Z,9.30
2023-04-13T04:46:03.234Z,9.30
2023-04-13T04:51:08.550Z,9.40
2023-04-13T04:56:11.595Z,9.50
2023-04-13T05:01:14.458Z,9.50
2023-04-13T05:06:17.420Z,9.60
2023-04-13T05:11:21.430Z,9.70
2023-04-13T05:16:26.514Z,9.90
2023-04-13T05:21:31.594Z,10.00
2023-04-13T05:26:35.008Z,10.20
2023-04-13T05:31:38.152Z,10.30
2023-04-13T05:36:41.523Z,10.60
2023-04-13T05:41:44.506Z,10.80
2023-04-13T05:46:50.609Z,11.10
2023-04-13T05:51:54.775Z,11.30
2023-04-13T05:56:57.791Z,11.50
2023-04-13T06:02:03.089Z,11.60
2023-04-13T06:07:06.946Z,11.70
2023-04-13T06:12:10.379Z,11.80
2023-04-13T06:17:13.379Z,11.90
2023-04-13T06:22:16.863Z,12.00
2023-04-13T06:27:19.879Z,12.10
2023-04-13T06:32:22.812Z,12.20
2023-04-13T06:37:25.886Z,12.20
2023-04-13T06:42:28.874Z,12.20
2023-04-13T06:47:32.384Z,12.30
2023-04-13T06:52:36.343Z,12.40
2023-04-13T06:57:39.997Z,12.60
2023-04-13T07:02:43.394Z,12.80
2023-04-13T07:07:46.606Z,13.10
2023-04-13T07:12:50.118Z,13.30
2023-04-13T07:17:53.498Z,13.50
2023-04-13T07:22:56.454Z,13.60
2023-04-13T07:27:59.386Z,13.70
2023-04-13T07:33:02.548Z,13.70
2023-04-13T07:38:06.614Z,13.80
2023-04-13T07:43:09.709Z,14.00
2023-04-13T07:48:12.998Z,14.20
2023-04-13T07:53:16.334Z,14.30
2023-04-13T07:58:19.430Z,14.50
2023-04-13T08:03:22.368Z,14.60
2023-04-13T08:08:25.404Z,14.80
2023-04-13T08:13:30.101Z,14.90
2023-04-13T08:18:33.347Z,14.90
2023-04-13T08:23:37.423Z,15.10
2023-04-13T08:28:40.431Z,15.20
2023-04-13T08:33:43.795Z,15.50
2023-04-13T08:38:47.145Z,16.00
2023-04-13T08:43:51.668Z,16.40
2023-04-13T08:48:56.803Z,16.60
2023-04-13T08:54:00.150Z,16.70
2023-04-13T08:59:07.598Z,17.00
2023-04-13T09:04:14.499Z,17.30
2023-04-13T09:09:21.176Z,17.50
2023-04-13T09:14:25.367Z,17.80
2023-04-13T09:19:33.249Z,18.10
2023-04-13T09:24:41.246Z,18.90
2023-04-13T09:29:56.453Z,19.90
2023-04-13T09:35:08.464Z,21.00
2023-04-13T09:40:14.828Z,21.30
2023-04-13T09:45:17.985Z,21.50
2023-04-13T09:50:28.504Z,21.20
2023-04-13T09:55:39.765Z,20.70
2023-04-13T10:00:46.775Z,20.10
2023-04-13T10:05:59.623Z,19.60
2023-04-13T10:11:04.484Z,19.20
2023-04-13T10:16:16.608Z,18.90
2023-04-13T10:21:20.154Z,18.60
2023-04-13T10:26:33.690Z,18.30
2023-04-13T10:31:49.349Z,18.10
2023-04-13T10:36:55.443Z,17.80
2023-04-13T10:42:10.168Z,17.60
2023-04-13T10:47:15.241Z,17.60
2023-04-13T10:52:18.712Z,17.60
2023-04-13T10:57:21.916Z,17.60
2023-04-13T11:02:33.135Z,17.70
2023-04-13T11:07:39.357Z,18.00
2023-04-13T11:12:54.335Z,18.10
2023-04-13T11:18:00.953Z,18.10
2023-04-13T11:23:13.465Z,18.20
2023-04-13T11:28:16.531Z,18.20
2023-04-13T11:33:30.202Z,18.30
2023-04-13T11:38:33.337Z,18.70
2023-04-13T11:43:37.371Z,19.10
2023-04-13T11:48:40.687Z,19.40
2023-04-13T11:53:44.126Z,19.30
2023-04-13T11:58:51.698Z,19.10
2023-04-13T12:04:12.893Z,19.10
2023-04-13T12:09:22.199Z,19.30
2023-04-13T12:24:40.140Z,19.60
2023-04-13T12:29:43.520Z,19.90
2023-04-13T12:34:47.305Z,20.00
2023-04-13T12:39:50.302Z,19.80
2023-04-13T12:44:55.161Z,19.50
2023-04-13T12:49:58.185Z,19.30
2023-04-13T12:55:02.447Z,19.30
2023-04-13T13:00:10.698Z,19.20
2023-04-13T13:05:13.685Z,19.30
2023-04-13T13:10:28.972Z,19.40
2023-04-13T13:15:33.471Z,19.70
2023-04-13T13:20:41.444Z,20.00
2023-04-13T13:25:54.297Z,19.90
2023-04-13T13:31:00.537Z,19.90
2023-04-13T13:36:03.732Z,19.60
2023-04-13T13:41:06.748Z,19.40
2023-04-13T13:46:11.283Z,19.30
2023-04-13T13:51:14.591Z,19.10
2023-04-13T13:56:17.776Z,19.00
2023-04-13T14:01:21.051Z,18.80
2023-04-13T14:06:24.044Z,18.80
2023-04-13T14:11:27.508Z,18.80
2023-04-13T14:16:30.982Z,18.90
2023-04-13T14:21:34.009Z,19.00
2023-04-13T14:26:38.337Z,19.00
2023-04-13T14:31:41.302Z,18.90
2023-04-13T14:36:44.824Z,18.80
2023-04-13T14:41:47.881Z,18.60
2023-04-13T14:46:50.934Z,18.50
2023-04-13T14:51:53.949Z,18.40
2023-04-13T14:56:57.125Z,18.40
2023-04-13T15:02:01.017Z,18.30
2023-04-13T15:07:04.377Z,18.20
2023-04-13T15:12:13.361Z,18.10
2023-04-13T15:17:16.888Z,18.10
2023-04-13T15:22:20.537Z,17.90
2023-04-13T15:27:27.007Z,17.80
2023-04-13T15:32:30.488Z,17.60
2023-04-13T15:37:33.606Z,17.40
2023-04-13T15:42:36.634Z,17.20
2023-04-13T15:47:39.763Z,16.90
2023-04-13T15:52:42.586Z,16.60
2023-04-13T15:57:45.790Z,16.40
2023-04-13T16:02:48.823Z,16.30
2023-04-13T16:07:52.662Z,16.20
2023-04-13T16:12:55.573Z,16.20
2023-04-13T16:17:58.530Z,16.20
2023-04-13T16:23:04.876Z,16.20
2023-04-13T16:28:07.961Z,16.20
2023-04-13T16:33:11.115Z,16.20
2023-04-13T16:38:14.191Z,16.10
2023-04-13T16:43:17.192Z,16.10
2023-04-13T16:48:21.086Z,16.10
2023-04-13T16:53:24.134Z,16.00
2023-04-13T16:58:26.925Z,15.90
2023-04-13T17:03:30.558Z,15.80
2023-04-13T17:08:33.601Z,15.60
2023-04-13T17:13:36.986Z,15.30
2023-04-13T17:18:40.717Z,15.10
2023-04-13T17:23:45.021Z,14.80
2023-04-13T17:28:48.114Z,14.60
2023-04-13T17:33:51.471Z,14.40
2023-04-13T17:38:54.461Z,14.30
2023-04-13T17:43:57.647Z,14.20
2023-04-13T17:49:00.609Z,14.00
2023-04-13T17:54:07.898Z,13.90
2023-04-13T17:59:14.918Z,13.80
2023-04-13T18:04:18.108Z,13.70
2023-04-13T18:09:22.536Z,13.60
2023-04-13T18:14:25.496Z,13.60
2023-04-13T18:19:30.516Z,13.60
2023-04-13T18:24:33.477Z,13.50
2023-04-13T18:29:36.444Z,13.50
2023-04-13T18:34:42.274Z,13.50
2023-04-13T18:39:45.576Z,13.50
2023-04-13T18:44:48.664Z,13.40
2023-04-13T18:49:51.967Z,13.40
2023-04-13T18:54:55.308Z,13.30
2023-04-13T18:59:58.457Z,13.20
2023-04-13T19:05:01.763Z,13.20
2023-04-13T19:10:05.753Z,13.10
2023-04-13T19:15:11.748Z,13.00
2023-04-13T19:20:14.682Z,13.00
2023-04-13T19:25:19.433Z,12.90
2023-04-13T19:30:22.407Z,12.80
2023-04-13T19:35:26.378Z,12.80
2023-04-13T19:40:29.505Z,12.80
2023-04-13T19:45:32.804Z,12.70
2023-04-13T19:50:35.970Z,12.70
2023-04-13T19:55:38.809Z,12.70
2023-04-13T20:00:42.370Z,12.70
2023-04-13T20:05:46.453Z,12.60
2023-04-13T20:10:49.581Z,12.60
2023-04-13T20:15:52.722Z,12.50
2023-04-13T20:20:55.839Z,12.50
2023-04-13T20:25:58.677Z,12.40
2023-04-13T20:31:02.017Z,12.40
2023-04-13T20:36:05.460Z,12.40
2023-04-13T20:41:10.528Z,12.40
2023-04-13T20:46:16.569Z,12.30
2023-04-13T20:51:22.992Z,12.40
2023-04-13T20:56:26.431Z,12.40
2023-04-13T21:01:32.296Z,12.40
2023-04-13T21:06:35.575Z,12.40
2023-04-13T21:11:38.549Z,12.50
2023-04-13T21:16:41.640Z,12.50
2023-04-13T21:21:44.842Z,12.60
2023-04-13T21:26:48.317Z,12.70
2023-04-13T21:31:51.722Z,12.70
2023-04-13T21:36:54.881Z,12.60
2023-04-13T21:41:58.175Z,12.50
2023-04-13T21:47:01.198Z,12.40
2023-04-13T21:52:04.693Z,12.20
2023-04-13T21:57:07.720Z,12.00
2023-04-13T22:02:11.038Z,11.90
2023-04-13T22:07:14.230Z,11.80
2023-04-13T22:12:17.232Z,11.70
2023-04-13T22:17:20.233Z,11.60
2023-04-13T22:22:23.406Z,11.50
2023-04-13T22:27:26.430Z,11.40
2023-04-13T22:32:29.371Z,11.40
2023-04-13T22:37:32.981Z,11.30
2023-04-13T22:42:35.988Z,11.20
2023-04-13T22:47:39.049Z,11.20
2023-04-13T22:52:41.856Z,11.20
2023-04-13T22:57:45.640Z,11.20
2023-04-13T23:02:50.560Z,11.10
2023-04-13T23:07:54.326Z,11.10
2023-04-13T23:12:58.093Z,11.00
2023-04-13T23:18:02.860Z,11.00
2023-04-13T23:23:06.223Z,11.00
2023-04-13T23:28:09.971Z,10.90
2023-04-13T23:33:13.175Z,10.80
2023-04-13T23:38:16.347Z,10.70
2023-04-13T23:43:19.347Z,10.70
2023-04-13T23:48:24.693Z,10.60
2023-04-13T23:53:27.720Z,10.60
2023-04-13T23:58:30.712Z,10.60
